sensor_id;sensor_type;location;lat;lon;timestamp;temperature;humidity
68358;DHT22;55276;53.260;50.222;2022-07-29T00:01:00;20.60;53.30
68358;DHT22;55276;53.260;50.222;2022-07-29T00:03:26;20.60;53.50
68358;DHT22;55276;53.260;50.222;2022-07-29T00:05:52;20.60;53.50
68358;DHT22;55276;53.260;50.222;2022-07-29T00:08:18;20.50;53.60
68358;DHT22;55276;53.260;50.222;2022-07-29T00:10:45;20.50;53.70
68358;DHT22;55276;53.260;50.222;2022-07-29T00:13:11;20.40;53.80
68358;DHT22;55276;53.260;50.222;2022-07-29T00:15:37;20.40;53.80
68358;DHT22;55276;53.260;50.222;2022-07-29T00:18:03;20.40;53.80
68358;DHT22;55276;53.260;50.222;2022-07-29T00:20:29;20.40;53.90
68358;DHT22;55276;53.260;50.222;2022-07-29T00:22:55;20.30;54.10
68358;DHT22;55276;53.260;50.222;2022-07-29T00:25:22;20.30;54.20
68358;DHT22;55276;53.260;50.222;2022-07-29T00:27:48;20.30;54.30
68358;DHT22;55276;53.260;50.222;2022-07-29T00:30:14;20.30;54.40
68358;DHT22;55276;53.260;50.222;2022-07-29T00:32:40;20.20;54.40
68358;DHT22;55276;53.260;50.222;2022-07-29T00:35:09;20.10;54.50
68358;DHT22;55276;53.260;50.222;2022-07-29T00:37:53;20.20;54.50
68358;DHT22;55276;53.260;50.222;2022-07-29T00:40:20;20.10;54.60
68358;DHT22;55276;53.260;50.222;2022-07-29T00:42:49;20.10;54.60
68358;DHT22;55276;53.260;50.222;2022-07-29T00:45:16;20.10;54.70
68358;DHT22;55276;53.260;50.222;2022-07-29T00:47:42;20.10;54.70
68358;DHT22;55276;53.260;50.222;2022-07-29T00:50:10;20.00;54.80
68358;DHT22;55276;53.260;50.222;2022-07-29T00:52:37;20.00;54.70
68358;DHT22;55276;53.260;50.222;2022-07-29T00:55:06;20.10;54.60
68358;DHT22;55276;53.260;50.222;2022-07-29T00:57:33;20.00;54.70
68358;DHT22;55276;53.260;50.222;2022-07-29T01:00:00;20.00;54.70
68358;DHT22;55276;53.260;50.222;2022-07-29T01:02:26;20.10;54.70
68358;DHT22;55276;53.260;50.222;2022-07-29T01:04:53;20.00;54.80
68358;DHT22;55276;53.260;50.222;2022-07-29T01:07:19;20.00;54.80
68358;DHT22;55276;53.260;50.222;2022-07-29T01:09:46;20.00;55.00
68358;DHT22;55276;53.260;50.222;2022-07-29T01:12:22;20.00;55.00
68358;DHT22;55276;53.260;50.222;2022-07-29T01:14:50;20.00;55.10
68358;DHT22;55276;53.260;50.222;2022-07-29T01:17:20;19.90;55.10
68358;DHT22;55276;53.260;50.222;2022-07-29T01:25:32;19.90;55.20
68358;DHT22;55276;53.260;50.222;2022-07-29T01:28:35;20.00;55.10
68358;DHT22;55276;53.260;50.222;2022-07-29T01:31:03;20.00;55.00
68358;DHT22;55276;53.260;50.222;2022-07-29T01:33:33;20.00;54.80
68358;DHT22;55276;53.260;50.222;2022-07-29T01:36:40;20.00;54.90
68358;DHT22;55276;53.260;50.222;2022-07-29T01:39:09;20.00;54.90
68358;DHT22;55276;53.260;50.222;2022-07-29T01:41:40;19.90;55.00
68358;DHT22;55276;53.260;50.222;2022-07-29T01:44:25;19.90;55.10
68358;DHT22;55276;53.260;50.222;2022-07-29T01:46:57;19.90;55.00
68358;DHT22;55276;53.260;50.222;2022-07-29T01:49:33;19.90;55.10
68358;DHT22;55276;53.260;50.222;2022-07-29T01:52:05;19.90;55.20
68358;DHT22;55276;53.260;50.222;2022-07-29T01:54:37;19.90;55.20
68358;DHT22;55276;53.260;50.222;2022-07-29T01:57:06;19.90;55.10
68358;DHT22;55276;53.260;50.222;2022-07-29T01:59:34;20.00;55.10
68358;DHT22;55276;53.260;50.222;2022-07-29T02:02:02;20.00;55.10
68358;DHT22;55276;53.260;50.222;2022-07-29T02:04:29;20.00;55.00
68358;DHT22;55276;53.260;50.222;2022-07-29T02:07:01;20.00;55.00
68358;DHT22;55276;53.260;50.222;2022-07-29T02:09:29;20.00;55.00
68358;DHT22;55276;53.260;50.222;2022-07-29T02:11:56;20.10;55.00
68358;DHT22;55276;53.260;50.222;2022-07-29T02:14:23;20.10;55.00
68358;DHT22;55276;53.260;50.222;2022-07-29T02:16:52;20.10;54.80
68358;DHT22;55276;53.260;50.222;2022-07-29T02:19:21;20.10;55.00
68358;DHT22;55276;53.260;50.222;2022-07-29T02:21:48;20.10;54.90
68358;DHT22;55276;53.260;50.222;2022-07-29T02:24:17;20.20;54.80
68358;DHT22;55276;53.260;50.222;2022-07-29T02:26:44;20.30;54.70
68358;DHT22;55276;53.260;50.222;2022-07-29T02:29:11;20.30;54.60
68358;DHT22;55276;53.260;50.222;2022-07-29T02:31:39;20.30;54.70
68358;DHT22;55276;53.260;50.222;2022-07-29T02:34:10;20.40;54.20
68358;DHT22;55276;53.260;50.222;2022-07-29T02:36:37;20.30;54.60
68358;DHT22;55276;53.260;50.222;2022-07-29T02:39:06;20.30;54.50
68358;DHT22;55276;53.260;50.222;2022-07-29T02:41:46;20.40;54.60
68358;DHT22;55276;53.260;50.222;2022-07-29T02:44:16;20.40;54.50
68358;DHT22;55276;53.260;50.222;2022-07-29T02:47:02;20.40;54.30
68358;DHT22;55276;53.260;50.222;2022-07-29T02:49:52;20.50;54.40
68358;DHT22;55276;53.260;50.222;2022-07-29T02:52:37;20.50;54.20
68358;DHT22;55276;53.260;50.222;2022-07-29T02:57:36;20.50;54.30
68358;DHT22;55276;53.260;50.222;2022-07-29T03:00:07;20.50;54.30
68358;DHT22;55276;53.260;50.222;2022-07-29T03:02:37;20.50;54.30
68358;DHT22;55276;53.260;50.222;2022-07-29T03:05:07;20.40;54.50
68358;DHT22;55276;53.260;50.222;2022-07-29T03:07:34;20.40;54.50
68358;DHT22;55276;53.260;50.222;2022-07-29T03:10:02;20.40;54.60
68358;DHT22;55276;53.260;50.222;2022-07-29T03:12:30;20.40;54.60
68358;DHT22;55276;53.260;50.222;2022-07-29T03:14:56;20.50;54.70
68358;DHT22;55276;53.260;50.222;2022-07-29T03:17:23;20.50;54.60
68358;DHT22;55276;53.260;50.222;2022-07-29T03:19:50;20.60;54.70
68358;DHT22;55276;53.260;50.222;2022-07-29T03:22:16;20.60;54.90
68358;DHT22;55276;53.260;50.222;2022-07-29T03:24:43;20.60;55.00
68358;DHT22;55276;53.260;50.222;2022-07-29T03:27:09;20.70;55.00
68358;DHT22;55276;53.260;50.222;2022-07-29T03:29:35;20.70;55.00
68358;DHT22;55276;53.260;50.222;2022-07-29T03:32:03;20.80;54.90
68358;DHT22;55276;53.260;50.222;2022-07-29T03:34:29;20.80;54.90
68358;DHT22;55276;53.260;50.222;2022-07-29T03:36:57;20.80;55.10
68358;DHT22;55276;53.260;50.222;2022-07-29T03:39:33;20.90;54.90
68358;DHT22;55276;53.260;50.222;2022-07-29T03:42:01;21.00;54.80
68358;DHT22;55276;53.260;50.222;2022-07-29T03:44:27;21.00;54.60
68358;DHT22;55276;53.260;50.222;2022-07-29T03:46:57;21.10;54.30
68358;DHT22;55276;53.260;50.222;2022-07-29T03:49:26;21.20;54.20
68358;DHT22;55276;53.260;50.222;2022-07-29T03:51:53;21.20;54.20
68358;DHT22;55276;53.260;50.222;2022-07-29T03:54:19;21.20;54.30
68358;DHT22;55276;53.260;50.222;2022-07-29T03:56:46;21.20;53.90
68358;DHT22;55276;53.260;50.222;2022-07-29T03:59:15;21.30;53.70
68358;DHT22;55276;53.260;50.222;2022-07-29T04:01:42;21.30;53.40
68358;DHT22;55276;53.260;50.222;2022-07-29T04:04:09;21.40;52.60
68358;DHT22;55276;53.260;50.222;2022-07-29T04:06:43;21.40;52.30
68358;DHT22;55276;53.260;50.222;2022-07-29T04:09:09;21.50;52.60
68358;DHT22;55276;53.260;50.222;2022-07-29T04:11:38;21.60;52.60
68358;DHT22;55276;53.260;50.222;2022-07-29T04:14:05;21.80;52.20
68358;DHT22;55276;53.260;50.222;2022-07-29T04:16:32;21.90;52.10
68358;DHT22;55276;53.260;50.222;2022-07-29T04:18:58;22.10;51.70
68358;DHT22;55276;53.260;50.222;2022-07-29T04:21:25;22.30;51.30
68358;DHT22;55276;53.260;50.222;2022-07-29T04:23:51;22.30;50.70
68358;DHT22;55276;53.260;50.222;2022-07-29T04:26:18;22.30;50.40
68358;DHT22;55276;53.260;50.222;2022-07-29T04:28:44;22.40;50.10
68358;DHT22;55276;53.260;50.222;2022-07-29T04:31:12;22.60;49.90
68358;DHT22;55276;53.260;50.222;2022-07-29T04:33:41;22.60;49.70
68358;DHT22;55276;53.260;50.222;2022-07-29T04:36:09;22.80;49.50
68358;DHT22;55276;53.260;50.222;2022-07-29T04:38:37;22.90;48.90
68358;DHT22;55276;53.260;50.222;2022-07-29T04:41:03;23.00;48.50
68358;DHT22;55276;53.260;50.222;2022-07-29T04:43:29;22.90;48.20
68358;DHT22;55276;53.260;50.222;2022-07-29T04:45:55;23.00;48.30
68358;DHT22;55276;53.260;50.222;2022-07-29T04:48:23;23.10;48.10
68358;DHT22;55276;53.260;50.222;2022-07-29T04:50:49;23.20;47.90
68358;DHT22;55276;53.260;50.222;2022-07-29T04:53:15;23.30;47.90
68358;DHT22;55276;53.260;50.222;2022-07-29T04:55:41;23.40;47.60
68358;DHT22;55276;53.260;50.222;2022-07-29T04:58:07;23.60;47.40
68358;DHT22;55276;53.260;50.222;2022-07-29T05:00:33;23.80;46.70
68358;DHT22;55276;53.260;50.222;2022-07-29T05:02:59;23.80;46.50
68358;DHT22;55276;53.260;50.222;2022-07-29T05:05:25;23.90;45.30
68358;DHT22;55276;53.260;50.222;2022-07-29T05:07:52;24.00;45.20
68358;DHT22;55276;53.260;50.222;2022-07-29T05:10:18;24.10;44.70
68358;DHT22;55276;53.260;50.222;2022-07-29T05:12:44;24.20;44.20
68358;DHT22;55276;53.260;50.222;2022-07-29T05:15:10;24.20;43.60
68358;DHT22;55276;53.260;50.222;2022-07-29T05:17:36;24.30;43.40
68358;DHT22;55276;53.260;50.222;2022-07-29T05:20:03;24.20;43.40
68358;DHT22;55276;53.260;50.222;2022-07-29T05:22:30;24.20;43.20
68358;DHT22;55276;53.260;50.222;2022-07-29T05:24:56;24.20;43.30
68358;DHT22;55276;53.260;50.222;2022-07-29T05:27:22;24.30;43.20
68358;DHT22;55276;53.260;50.222;2022-07-29T05:29:48;24.40;42.90
68358;DHT22;55276;53.260;50.222;2022-07-29T05:32:14;24.50;42.50
68358;DHT22;55276;53.260;50.222;2022-07-29T05:34:41;24.60;42.50
68358;DHT22;55276;53.260;50.222;2022-07-29T05:37:07;24.70;42.30
68358;DHT22;55276;53.260;50.222;2022-07-29T05:39:33;24.80;42.00
68358;DHT22;55276;53.260;50.222;2022-07-29T05:41:59;24.80;42.00
68358;DHT22;55276;53.260;50.222;2022-07-29T05:44:25;24.80;42.20
68358;DHT22;55276;53.260;50.222;2022-07-29T05:46:51;24.80;42.30
68358;DHT22;55276;53.260;50.222;2022-07-29T05:49:21;24.90;42.30
68358;DHT22;55276;53.260;50.222;2022-07-29T05:51:47;25.10;42.30
68358;DHT22;55276;53.260;50.222;2022-07-29T05:54:14;25.20;41.80
68358;DHT22;55276;53.260;50.222;2022-07-29T05:56:40;25.30;41.40
68358;DHT22;55276;53.260;50.222;2022-07-29T05:59:06;25.30;41.40
68358;DHT22;55276;53.260;50.222;2022-07-29T06:01:32;25.20;41.50
68358;DHT22;55276;53.260;50.222;2022-07-29T06:03:58;25.40;41.20
68358;DHT22;55276;53.260;50.222;2022-07-29T06:06:25;25.50;41.20
68358;DHT22;55276;53.260;50.222;2022-07-29T06:08:51;25.80;41.10
68358;DHT22;55276;53.260;50.222;2022-07-29T06:11:17;25.90;41.00
68358;DHT22;55276;53.260;50.222;2022-07-29T06:13:43;25.90;40.90
68358;DHT22;55276;53.260;50.222;2022-07-29T06:16:09;26.10;40.80
68358;DHT22;55276;53.260;50.222;2022-07-29T06:18:35;26.00;40.80
68358;DHT22;55276;53.260;50.222;2022-07-29T06:21:01;26.20;40.70
68358;DHT22;55276;53.260;50.222;2022-07-29T06:23:27;26.30;40.50
68358;DHT22;55276;53.260;50.222;2022-07-29T06:25:53;26.40;40.30
68358;DHT22;55276;53.260;50.222;2022-07-29T06:28:19;26.40;40.10
68358;DHT22;55276;53.260;50.222;2022-07-29T06:30:45;26.30;40.40
68358;DHT22;55276;53.260;50.222;2022-07-29T06:33:16;26.30;40.10
68358;DHT22;55276;53.260;50.222;2022-07-29T06:35:43;26.10;39.60
68358;DHT22;55276;53.260;50.222;2022-07-29T06:38:09;26.20;39.80
68358;DHT22;55276;53.260;50.222;2022-07-29T06:40:35;26.30;39.50
68358;DHT22;55276;53.260;50.222;2022-07-29T06:43:20;26.40;39.40
68358;DHT22;55276;53.260;50.222;2022-07-29T06:45:46;26.50;38.90
68358;DHT22;55276;53.260;50.222;2022-07-29T06:48:12;26.50;38.40
68358;DHT22;55276;53.260;50.222;2022-07-29T06:50:42;26.60;38.30
68358;DHT22;55276;53.260;50.222;2022-07-29T06:53:08;26.60;38.40
68358;DHT22;55276;53.260;50.222;2022-07-29T06:55:34;26.60;38.30
68358;DHT22;55276;53.260;50.222;2022-07-29T06:58:02;26.70;38.00
68358;DHT22;55276;53.260;50.222;2022-07-29T07:00:28;26.70;37.90
68358;DHT22;55276;53.260;50.222;2022-07-29T07:02:54;26.80;37.90
68358;DHT22;55276;53.260;50.222;2022-07-29T07:05:21;26.70;37.80
68358;DHT22;55276;53.260;50.222;2022-07-29T07:07:47;26.60;37.50
68358;DHT22;55276;53.260;50.222;2022-07-29T07:10:13;26.60;37.60
68358;DHT22;55276;53.260;50.222;2022-07-29T07:12:39;26.80;37.00
68358;DHT22;55276;53.260;50.222;2022-07-29T07:15:05;26.90;36.30
68358;DHT22;55276;53.260;50.222;2022-07-29T07:17:31;26.90;36.30
68358;DHT22;55276;53.260;50.222;2022-07-29T07:19:58;27.00;36.10
68358;DHT22;55276;53.260;50.222;2022-07-29T07:22:24;27.00;35.90
68358;DHT22;55276;53.260;50.222;2022-07-29T07:24:50;27.00;35.60
68358;DHT22;55276;53.260;50.222;2022-07-29T07:27:16;27.00;35.90
68358;DHT22;55276;53.260;50.222;2022-07-29T07:29:42;26.90;35.60
68358;DHT22;55276;53.260;50.222;2022-07-29T07:32:08;27.00;35.70
68358;DHT22;55276;53.260;50.222;2022-07-29T07:34:34;27.00;35.60
68358;DHT22;55276;53.260;50.222;2022-07-29T07:37:00;27.00;35.60
68358;DHT22;55276;53.260;50.222;2022-07-29T07:39:26;27.00;35.90
68358;DHT22;55276;53.260;50.222;2022-07-29T07:41:52;27.20;35.60
68358;DHT22;55276;53.260;50.222;2022-07-29T07:44:18;27.10;35.30
68358;DHT22;55276;53.260;50.222;2022-07-29T07:46:44;27.20;35.20
68358;DHT22;55276;53.260;50.222;2022-07-29T07:49:11;27.30;35.20
68358;DHT22;55276;53.260;50.222;2022-07-29T07:51:38;27.40;35.10
68358;DHT22;55276;53.260;50.222;2022-07-29T07:54:04;27.40;35.20
68358;DHT22;55276;53.260;50.222;2022-07-29T07:56:30;27.20;35.60
68358;DHT22;55276;53.260;50.222;2022-07-29T07:58:56;27.10;35.60
68358;DHT22;55276;53.260;50.222;2022-07-29T08:01:22;27.20;35.50
68358;DHT22;55276;53.260;50.222;2022-07-29T08:03:49;27.40;35.20
68358;DHT22;55276;53.260;50.222;2022-07-29T08:06:15;27.50;35.30
68358;DHT22;55276;53.260;50.222;2022-07-29T08:08:42;27.40;35.30
68358;DHT22;55276;53.260;50.222;2022-07-29T08:11:08;27.40;35.00
68358;DHT22;55276;53.260;50.222;2022-07-29T08:13:34;27.50;34.60
68358;DHT22;55276;53.260;50.222;2022-07-29T08:16:00;27.60;34.80
68358;DHT22;55276;53.260;50.222;2022-07-29T08:18:29;27.60;35.10
68358;DHT22;55276;53.260;50.222;2022-07-29T08:20:56;27.60;35.20
68358;DHT22;55276;53.260;50.222;2022-07-29T08:23:22;27.70;35.10
68358;DHT22;55276;53.260;50.222;2022-07-29T08:25:49;27.90;34.80
68358;DHT22;55276;53.260;50.222;2022-07-29T08:28:16;27.90;34.70
68358;DHT22;55276;53.260;50.222;2022-07-29T08:30:42;27.90;34.60
68358;DHT22;55276;53.260;50.222;2022-07-29T08:33:08;27.90;34.20
68358;DHT22;55276;53.260;50.222;2022-07-29T08:35:36;27.90;34.00
68358;DHT22;55276;53.260;50.222;2022-07-29T08:38:02;27.90;34.10
68358;DHT22;55276;53.260;50.222;2022-07-29T08:40:29;27.90;34.40
68358;DHT22;55276;53.260;50.222;2022-07-29T08:42:55;28.00;34.50
68358;DHT22;55276;53.260;50.222;2022-07-29T08:45:23;28.20;34.70
68358;DHT22;55276;53.260;50.222;2022-07-29T08:47:49;28.40;34.10
68358;DHT22;55276;53.260;50.222;2022-07-29T08:50:15;28.40;33.90
68358;DHT22;55276;53.260;50.222;2022-07-29T08:52:44;28.50;33.50
68358;DHT22;55276;53.260;50.222;2022-07-29T08:55:11;28.60;33.60
68358;DHT22;55276;53.260;50.222;2022-07-29T08:57:39;28.70;33.80
68358;DHT22;55276;53.260;50.222;2022-07-29T09:00:07;28.70;33.80
68358;DHT22;55276;53.260;50.222;2022-07-29T09:02:41;28.80;33.70
68358;DHT22;55276;53.260;50.222;2022-07-29T09:05:09;28.80;33.60
68358;DHT22;55276;53.260;50.222;2022-07-29T09:07:35;28.80;32.70
68358;DHT22;55276;53.260;50.222;2022-07-29T09:10:04;28.70;33.10
68358;DHT22;55276;53.260;50.222;2022-07-29T09:12:30;28.70;33.60
68358;DHT22;55276;53.260;50.222;2022-07-29T09:14:56;28.80;33.90
68358;DHT22;55276;53.260;50.222;2022-07-29T09:17:46;28.90;34.00
68358;DHT22;55276;53.260;50.222;2022-07-29T09:20:18;29.00;34.10
68358;DHT22;55276;53.260;50.222;2022-07-29T09:22:44;28.80;33.60
68358;DHT22;55276;53.260;50.222;2022-07-29T09:25:34;28.50;34.20
68358;DHT22;55276;53.260;50.222;2022-07-29T09:28:08;28.40;34.80
68358;DHT22;55276;53.260;50.222;2022-07-29T09:30:35;28.60;35.00
68358;DHT22;55276;53.260;50.222;2022-07-29T09:33:03;28.80;34.80
68358;DHT22;55276;53.260;50.222;2022-07-29T09:35:30;29.00;34.60
68358;DHT22;55276;53.260;50.222;2022-07-29T09:37:58;29.10;34.50
68358;DHT22;55276;53.260;50.222;2022-07-29T09:40:35;29.20;34.50
68358;DHT22;55276;53.260;50.222;2022-07-29T09:43:10;29.10;34.20
68358;DHT22;55276;53.260;50.222;2022-07-29T09:45:36;28.90;34.70
68358;DHT22;55276;53.260;50.222;2022-07-29T09:50:44;28.90;34.70
68358;DHT22;55276;53.260;50.222;2022-07-29T09:53:11;29.10;34.50
68358;DHT22;55276;53.260;50.222;2022-07-29T09:55:48;29.20;34.30
68358;DHT22;55276;53.260;50.222;2022-07-29T09:58:18;29.30;33.80
68358;DHT22;55276;53.260;50.222;2022-07-29T10:00:46;29.20;33.90
68358;DHT22;55276;53.260;50.222;2022-07-29T10:03:13;29.30;33.90
68358;DHT22;55276;53.260;50.222;2022-07-29T10:05:39;29.40;33.60
68358;DHT22;55276;53.260;50.222;2022-07-29T10:08:06;29.40;33.60
68358;DHT22;55276;53.260;50.222;2022-07-29T10:10:37;29.40;33.60
68358;DHT22;55276;53.260;50.222;2022-07-29T10:13:13;29.30;33.70
68358;DHT22;55276;53.260;50.222;2022-07-29T10:15:41;29.30;33.50
68358;DHT22;55276;53.260;50.222;2022-07-29T10:18:11;29.40;33.60
68358;DHT22;55276;53.260;50.222;2022-07-29T10:20:39;29.50;33.40
68358;DHT22;55276;53.260;50.222;2022-07-29T10:23:05;29.50;33.20
68358;DHT22;55276;53.260;50.222;2022-07-29T10:25:31;29.50;33.10
68358;DHT22;55276;53.260;50.222;2022-07-29T10:27:58;29.40;32.90
68358;DHT22;55276;53.260;50.222;2022-07-29T10:30:25;29.30;33.10
68358;DHT22;55276;53.260;50.222;2022-07-29T10:35:58;29.50;33.20
68358;DHT22;55276;53.260;50.222;2022-07-29T10:41:29;29.60;32.70
68358;DHT22;55276;53.260;50.222;2022-07-29T10:43:59;29.40;33.30
68358;DHT22;55276;53.260;50.222;2022-07-29T10:46:27;29.30;33.20
68358;DHT22;55276;53.260;50.222;2022-07-29T10:49:16;29.30;33.40
68358;DHT22;55276;53.260;50.222;2022-07-29T10:52:03;29.40;32.90
68358;DHT22;55276;53.260;50.222;2022-07-29T10:59:44;30.30;32.20
68358;DHT22;55276;53.260;50.222;2022-07-29T11:07:25;34.50;27.50
68358;DHT22;55276;53.260;50.222;2022-07-29T11:23:27;44.40;19.60
68358;DHT22;55276;53.260;50.222;2022-07-29T11:26:18;45.20;18.80
68358;DHT22;55276;53.260;50.222;2022-07-29T11:29:04;46.10;18.30
68358;DHT22;55276;53.260;50.222;2022-07-29T11:31:33;46.90;17.70
68358;DHT22;55276;53.260;50.222;2022-07-29T11:39:44;46.80;17.30
68358;DHT22;55276;53.260;50.222;2022-07-29T11:45:17;43.90;18.10
68358;DHT22;55276;53.260;50.222;2022-07-29T11:50:18;43.40;18.90
68358;DHT22;55276;53.260;50.222;2022-07-29T11:52:52;45.90;17.60
68358;DHT22;55276;53.260;50.222;2022-07-29T11:55:22;47.90;16.40
68358;DHT22;55276;53.260;50.222;2022-07-29T11:57:51;47.80;16.20
68358;DHT22;55276;53.260;50.222;2022-07-29T12:00:39;47.50;16.60
68358;DHT22;55276;53.260;50.222;2022-07-29T12:03:10;49.40;15.60
68358;DHT22;55276;53.260;50.222;2022-07-29T12:05:39;50.70;15.10
68358;DHT22;55276;53.260;50.222;2022-07-29T12:08:20;51.20;14.80
68358;DHT22;55276;53.260;50.222;2022-07-29T12:10:49;51.00;14.90
68358;DHT22;55276;53.260;50.222;2022-07-29T12:13:18;51.30;14.90
68358;DHT22;55276;53.260;50.222;2022-07-29T12:19:04;52.50;14.50
68358;DHT22;55276;53.260;50.222;2022-07-29T12:21:47;51.40;14.70
68358;DHT22;55276;53.260;50.222;2022-07-29T12:24:13;50.40;15.30
68358;DHT22;55276;53.260;50.222;2022-07-29T12:29:16;50.40;15.20
68358;DHT22;55276;53.260;50.222;2022-07-29T12:31:43;50.40;15.10
68358;DHT22;55276;53.260;50.222;2022-07-29T12:34:12;49.90;15.30
68358;DHT22;55276;53.260;50.222;2022-07-29T12:36:40;50.40;15.20
68358;DHT22;55276;53.260;50.222;2022-07-29T12:39:07;50.90;14.80
68358;DHT22;55276;53.260;50.222;2022-07-29T12:41:35;50.80;15.00
68358;DHT22;55276;53.260;50.222;2022-07-29T12:44:01;51.70;14.70
68358;DHT22;55276;53.260;50.222;2022-07-29T12:46:27;51.70;14.70
68358;DHT22;55276;53.260;50.222;2022-07-29T12:48:54;52.10;14.50
68358;DHT22;55276;53.260;50.222;2022-07-29T12:51:33;52.50;14.40
68358;DHT22;55276;53.260;50.222;2022-07-29T12:54:12;52.80;14.00
68358;DHT22;55276;53.260;50.222;2022-07-29T12:56:43;52.60;13.90
68358;DHT22;55276;53.260;50.222;2022-07-29T12:59:14;52.40;13.80
68358;DHT22;55276;53.260;50.222;2022-07-29T13:01:40;52.20;13.90
68358;DHT22;55276;53.260;50.222;2022-07-29T13:04:07;52.30;13.90
68358;DHT22;55276;53.260;50.222;2022-07-29T13:06:39;52.20;13.90
68358;DHT22;55276;53.260;50.222;2022-07-29T13:09:11;52.20;14.00
68358;DHT22;55276;53.260;50.222;2022-07-29T13:11:47;51.40;14.30
68358;DHT22;55276;53.260;50.222;2022-07-29T13:14:32;50.70;14.40
68358;DHT22;55276;53.260;50.222;2022-07-29T13:17:05;48.60;15.30
68358;DHT22;55276;53.260;50.222;2022-07-29T13:19:43;45.30;16.30
68358;DHT22;55276;53.260;50.222;2022-07-29T13:22:11;41.40;18.40
68358;DHT22;55276;53.260;50.222;2022-07-29T13:24:55;39.10;20.30
68358;DHT22;55276;53.260;50.222;2022-07-29T13:27:28;37.80;21.60
68358;DHT22;55276;53.260;50.222;2022-07-29T13:29:56;36.70;23.10
68358;DHT22;55276;53.260;50.222;2022-07-29T13:32:24;35.80;23.70
68358;DHT22;55276;53.260;50.222;2022-07-29T13:34:55;35.10;24.30
68358;DHT22;55276;53.260;50.222;2022-07-29T13:37:22;34.90;24.70
68358;DHT22;55276;53.260;50.222;2022-07-29T13:39:48;34.60;25.00
68358;DHT22;55276;53.260;50.222;2022-07-29T13:42:14;34.10;25.00
68358;DHT22;55276;53.260;50.222;2022-07-29T13:44:41;33.80;25.60
68358;DHT22;55276;53.260;50.222;2022-07-29T13:47:08;33.50;25.90
68358;DHT22;55276;53.260;50.222;2022-07-29T13:49:34;33.40;26.20
68358;DHT22;55276;53.260;50.222;2022-07-29T13:52:02;33.20;26.30
68358;DHT22;55276;53.260;50.222;2022-07-29T13:54:29;33.00;26.50
68358;DHT22;55276;53.260;50.222;2022-07-29T13:56:56;32.90;26.70
68358;DHT22;55276;53.260;50.222;2022-07-29T13:59:22;32.90;27.10
68358;DHT22;55276;53.260;50.222;2022-07-29T14:01:48;32.70;27.40
68358;DHT22;55276;53.260;50.222;2022-07-29T14:04:14;32.60;27.80
68358;DHT22;55276;53.260;50.222;2022-07-29T14:06:41;32.40;27.90
68358;DHT22;55276;53.260;50.222;2022-07-29T14:09:07;32.40;28.10
68358;DHT22;55276;53.260;50.222;2022-07-29T14:11:36;32.30;28.30
68358;DHT22;55276;53.260;50.222;2022-07-29T14:14:04;32.10;28.50
68358;DHT22;55276;53.260;50.222;2022-07-29T14:16:30;31.80;28.80
68358;DHT22;55276;53.260;50.222;2022-07-29T14:18:56;31.70;29.00
68358;DHT22;55276;53.260;50.222;2022-07-29T14:21:23;31.60;29.30
68358;DHT22;55276;53.260;50.222;2022-07-29T14:23:49;31.30;29.60
68358;DHT22;55276;53.260;50.222;2022-07-29T14:26:15;31.00;30.10
68358;DHT22;55276;53.260;50.222;2022-07-29T14:28:41;30.90;30.70
68358;DHT22;55276;53.260;50.222;2022-07-29T14:31:07;30.80;31.10
68358;DHT22;55276;53.260;50.222;2022-07-29T14:33:34;30.70;32.00
68358;DHT22;55276;53.260;50.222;2022-07-29T14:36:00;30.40;33.70
68358;DHT22;55276;53.260;50.222;2022-07-29T14:38:26;29.90;34.60
68358;DHT22;55276;53.260;50.222;2022-07-29T14:40:53;29.50;35.10
68358;DHT22;55276;53.260;50.222;2022-07-29T14:43:19;29.20;35.40
68358;DHT22;55276;53.260;50.222;2022-07-29T14:45:45;29.00;35.70
68358;DHT22;55276;53.260;50.222;2022-07-29T14:48:11;29.10;36.10
68358;DHT22;55276;53.260;50.222;2022-07-29T14:50:37;29.20;36.20
68358;DHT22;55276;53.260;50.222;2022-07-29T14:53:03;30.20;35.10
68358;DHT22;55276;53.260;50.222;2022-07-29T14:55:30;31.60;33.20
68358;DHT22;55276;53.260;50.222;2022-07-29T14:57:57;33.40;31.00
68358;DHT22;55276;53.260;50.222;2022-07-29T15:00:25;35.10;29.30
68358;DHT22;55276;53.260;50.222;2022-07-29T15:02:51;35.50;28.70
68358;DHT22;55276;53.260;50.222;2022-07-29T15:05:17;36.10;27.90
68358;DHT22;55276;53.260;50.222;2022-07-29T15:07:43;36.10;28.10
68358;DHT22;55276;53.260;50.222;2022-07-29T15:10:09;35.90;28.20
68358;DHT22;55276;53.260;50.222;2022-07-29T15:12:35;35.50;28.90
68358;DHT22;55276;53.260;50.222;2022-07-29T15:15:02;35.50;28.90
68358;DHT22;55276;53.260;50.222;2022-07-29T15:17:28;34.90;29.60
68358;DHT22;55276;53.260;50.222;2022-07-29T15:19:54;34.10;30.50
68358;DHT22;55276;53.260;50.222;2022-07-29T15:22:20;33.40;31.60
68358;DHT22;55276;53.260;50.222;2022-07-29T15:24:46;32.40;32.90
68358;DHT22;55276;53.260;50.222;2022-07-29T15:27:12;31.60;33.60
68358;DHT22;55276;53.260;50.222;2022-07-29T15:29:44;31.20;34.30
68358;DHT22;55276;53.260;50.222;2022-07-29T15:32:10;31.10;34.80
68358;DHT22;55276;53.260;50.222;2022-07-29T15:34:38;31.10;34.70
68358;DHT22;55276;53.260;50.222;2022-07-29T15:37:05;31.10;35.40
68358;DHT22;55276;53.260;50.222;2022-07-29T15:39:31;31.10;35.80
68358;DHT22;55276;53.260;50.222;2022-07-29T15:41:58;31.40;35.30
68358;DHT22;55276;53.260;50.222;2022-07-29T15:44:27;32.20;34.10
68358;DHT22;55276;53.260;50.222;2022-07-29T15:46:53;33.10;32.70
68358;DHT22;55276;53.260;50.222;2022-07-29T15:49:36;33.60;32.10
68358;DHT22;55276;53.260;50.222;2022-07-29T15:52:05;33.60;32.20
68358;DHT22;55276;53.260;50.222;2022-07-29T15:54:33;33.20;33.00
68358;DHT22;55276;53.260;50.222;2022-07-29T15:56:59;32.80;33.30
68358;DHT22;55276;53.260;50.222;2022-07-29T15:59:27;32.30;34.00
68358;DHT22;55276;53.260;50.222;2022-07-29T16:01:54;31.80;34.60
68358;DHT22;55276;53.260;50.222;2022-07-29T16:04:21;31.20;35.40
68358;DHT22;55276;53.260;50.222;2022-07-29T16:06:47;30.30;36.70
68358;DHT22;55276;53.260;50.222;2022-07-29T16:09:14;29.50;37.80
68358;DHT22;55276;53.260;50.222;2022-07-29T16:11:40;29.00;38.40
68358;DHT22;55276;53.260;50.222;2022-07-29T16:14:07;28.40;38.90
68358;DHT22;55276;53.260;50.222;2022-07-29T16:16:34;28.00;39.60
68358;DHT22;55276;53.260;50.222;2022-07-29T16:19:00;27.70;40.40
68358;DHT22;55276;53.260;50.222;2022-07-29T16:21:26;27.40;41.20